sensor_id;sensor_type;location;lat;lon;timestamp;pressure;altitude;pressure_sealevel;temperature;humidity
53689;BME280;39583;54.682;30.662;2022-12-18T06:43:02;100166.69;;;-5.58;100.00
53689;BME280;39583;54.682;30.662;2022-12-18T06:45:28;100194.00;;;-5.48;98.83
53689;BME280;39583;54.682;30.662;2022-12-18T06:47:54;100190.56;;;-5.36;97.94
53689;BME280;39583;54.682;30.662;2022-12-18T06:50:20;100188.09;;;-5.24;97.33
53689;BME280;39583;54.682;30.662;2022-12-18T06:52:46;100193.56;;;-5.15;96.62
53689;BME280;39583;54.682;30.662;2022-12-18T06:55:12;100194.94;;;-5.09;96.02
53689;BME280;39583;54.682;30.662;2022-12-18T06:57:38;100202.91;;;-5.11;95.50
53689;BME280;39583;54.682;30.662;2022-12-18T07:00:06;100219.34;;;-5.07;95.22
53689;BME280;39583;54.682;30.662;2022-12-18T07:02:32;100231.41;;;-5.05;95.08
53689;BME280;39583;54.682;30.662;2022-12-18T07:04:58;100225.41;;;-5.07;94.72
53689;BME280;39583;54.682;30.662;2022-12-18T07:07:25;100226.25;;;-5.06;94.57
53689;BME280;39583;54.682;30.662;2022-12-18T07:09:51;100231.19;;;-5.01;94.27
53689;BME280;39583;54.682;30.662;2022-12-18T07:12:17;100225.00;;;-5.00;94.46
53689;BME280;39583;54.682;30.662;2022-12-18T07:14:43;100238.75;;;-4.97;93.99
53689;BME280;39583;54.682;30.662;2022-12-18T07:17:09;100246.00;;;-5.00;93.84
53689;BME280;39583;54.682;30.662;2022-12-18T07:19:35;100256.50;;;-5.00;93.69
53689;BME280;39583;54.682;30.662;2022-12-18T07:22:02;100255.16;;;-5.06;93.69
53689;BME280;39583;54.682;30.662;2022-12-18T07:24:28;100260.81;;;-4.99;93.45
53689;BME280;39583;54.682;30.662;2022-12-18T07:26:54;100263.91;;;-4.93;93.61
53689;BME280;39583;54.682;30.662;2022-12-18T07:29:20;100268.84;;;-4.88;93.52
53689;BME280;39583;54.682;30.662;2022-12-18T07:31:46;100269.47;;;-4.85;93.54
53689;BME280;39583;54.682;30.662;2022-12-18T07:34:13;100270.19;;;-4.83;93.05
53689;BME280;39583;54.682;30.662;2022-12-18T07:36:40;100258.53;;;-4.91;92.78
53689;BME280;39583;54.682;30.662;2022-12-18T07:39:07;100282.41;;;-4.82;93.02
53689;BME280;39583;54.682;30.662;2022-12-18T07:41:33;100291.13;;;-4.81;92.80
53689;BME280;39583;54.682;30.662;2022-12-18T07:44:11;100293.25;;;-4.73;93.09
53689;BME280;39583;54.682;30.662;2022-12-18T07:46:38;100280.72;;;-4.83;92.67
53689;BME280;39583;54.682;30.662;2022-12-18T07:49:04;100309.09;;;-4.75;92.50
53689;BME280;39583;54.682;30.662;2022-12-18T07:51:30;100298.81;;;-4.78;91.98
53689;BME280;39583;54.682;30.662;2022-12-18T07:53:56;100295.88;;;-4.73;92.54
53689;BME280;39583;54.682;30.662;2022-12-18T07:56:22;100303.75;;;-4.73;92.14
53689;BME280;39583;54.682;30.662;2022-12-18T07:58:48;100302.06;;;-4.75;91.83
53689;BME280;39583;54.682;30.662;2022-12-18T08:01:15;100314.81;;;-4.68;92.04
53689;BME280;39583;54.682;30.662;2022-12-18T08:03:41;100311.66;;;-4.61;92.08
53689;BME280;39583;54.682;30.662;2022-12-18T08:06:08;100312.50;;;-4.60;92.19
53689;BME280;39583;54.682;30.662;2022-12-18T08:08:35;100317.34;;;-4.54;92.20
53689;BME280;39583;54.682;30.662;2022-12-18T08:11:02;100318.09;;;-4.52;91.94
53689;BME280;39583;54.682;30.662;2022-12-18T08:13:28;100337.44;;;-4.53;91.33
53689;BME280;39583;54.682;30.662;2022-12-18T08:16:03;100328.41;;;-4.49;91.59
53689;BME280;39583;54.682;30.662;2022-12-18T08:18:32;100336.28;;;-4.49;91.48
53689;BME280;39583;54.682;30.662;2022-12-18T08:21:07;100343.31;;;-4.50;91.06
53689;BME280;39583;54.682;30.662;2022-12-18T08:23:34;100354.56;;;-4.48;91.39
53689;BME280;39583;54.682;30.662;2022-12-18T08:26:00;100359.19;;;-4.51;91.08
53689;BME280;39583;54.682;30.662;2022-12-18T08:28:26;100359.19;;;-4.51;90.86
53689;BME280;39583;54.682;30.662;2022-12-18T08:30:52;100375.28;;;-4.43;91.30
53689;BME280;39583;54.682;30.662;2022-12-18T08:33:18;100373.22;;;-4.38;91.16
53689;BME280;39583;54.682;30.662;2022-12-18T08:35:44;100369.84;;;-4.40;90.92
53689;BME280;39583;54.682;30.662;2022-12-18T08:38:10;100372.78;;;-4.32;91.26
53689;BME280;39583;54.682;30.662;2022-12-18T08:40:36;100365.75;;;-4.31;90.75
53689;BME280;39583;54.682;30.662;2022-12-18T08:43:02;100382.47;;;-4.32;90.46
53689;BME280;39583;54.682;30.662;2022-12-18T08:45:47;100387.72;;;-4.32;90.41
53689;BME280;39583;54.682;30.662;2022-12-18T08:48:13;100384.03;;;-4.30;90.42
53689;BME280;39583;54.682;30.662;2022-12-18T08:50:40;100379.66;;;-4.29;90.15
53689;BME280;39583;54.682;30.662;2022-12-18T08:53:06;100376.81;;;-4.26;90.13
53689;BME280;39583;54.682;30.662;2022-12-18T08:55:32;100399.81;;;-4.30;89.74
53689;BME280;39583;54.682;30.662;2022-12-18T08:57:58;100389.41;;;-4.31;89.47
53689;BME280;39583;54.682;30.662;2022-12-18T09:00:24;100393.44;;;-4.26;89.88
53689;BME280;39583;54.682;30.662;2022-12-18T09:02:50;100380.81;;;-4.21;89.50
53689;BME280;39583;54.682;30.662;2022-12-18T09:05:16;100393.31;;;-4.24;89.01
53689;BME280;39583;54.682;30.662;2022-12-18T09:07:42;100391.63;;;-4.25;89.27
53689;BME280;39583;54.682;30.662;2022-12-18T09:10:08;100417.22;;;-4.14;89.04
53689;BME280;39583;54.682;30.662;2022-12-18T09:12:34;100407.84;;;-4.19;89.09
53689;BME280;39583;54.682;30.662;2022-12-18T09:15:00;100412.06;;;-4.16;89.04
53689;BME280;39583;54.682;30.662;2022-12-18T09:17:26;100411.22;;;-4.17;88.79
53689;BME280;39583;54.682;30.662;2022-12-18T09:19:52;100441.84;;;-4.16;88.37
53689;BME280;39583;54.682;30.662;2022-12-18T09:22:18;100432.44;;;-4.20;88.44
53689;BME280;39583;54.682;30.662;2022-12-18T09:24:44;100456.63;;;-4.27;87.82
53689;BME280;39583;54.682;30.662;2022-12-18T09:27:10;100442.09;;;-4.33;87.92
53689;BME280;39583;54.682;30.662;2022-12-18T09:29:37;100431.38;;;-4.30;88.13
53689;BME280;39583;54.682;30.662;2022-12-18T09:32:03;100445.06;;;-4.25;88.39
53689;BME280;39583;54.682;30.662;2022-12-18T09:34:29;100456.63;;;-4.27;88.05
53689;BME280;39583;54.682;30.662;2022-12-18T09:36:55;100453.75;;;-4.37;87.39
53689;BME280;39583;54.682;30.662;2022-12-18T09:39:21;100454.91;;;-4.41;87.76
53689;BME280;39583;54.682;30.662;2022-12-18T09:41:50;100459.22;;;-4.40;87.63
53689;BME280;39583;54.682;30.662;2022-12-18T09:44:25;100464.75;;;-4.45;87.83
53689;BME280;39583;54.682;30.662;2022-12-18T09:49:40;100481.03;;;-4.25;87.83
53689;BME280;39583;54.682;30.662;2022-12-18T09:58:02;100481.69;;;-4.49;86.53
53689;BME280;39583;54.682;30.662;2022-12-18T10:00:30;100494.66;;;-4.60;86.49
53689;BME280;39583;54.682;30.662;2022-12-18T10:03:02;100482.63;;;-4.77;86.72
53689;BME280;39583;54.682;30.662;2022-12-18T10:09:07;100506.31;;;-4.64;86.92
53689;BME280;39583;54.682;30.662;2022-12-18T10:16:56;100526.09;;;-4.58;86.64
53689;BME280;39583;54.682;30.662;2022-12-18T10:25:22;100535.97;;;-4.62;86.21
53689;BME280;39583;54.682;30.662;2022-12-18T10:27:24;100530.19;;;-4.67;86.13
53689;BME280;39583;54.682;30.662;2022-12-18T10:29:52;100540.00;;;-4.56;86.56
53689;BME280;39583;54.682;30.662;2022-12-18T10:32:23;100541.50;;;-4.52;85.82
53689;BME280;39583;54.682;30.662;2022-12-18T10:34:53;100538.13;;;-4.54;85.99
53689;BME280;39583;54.682;30.662;2022-12-18T10:37:22;100545.44;;;-4.59;85.84
53689;BME280;39583;54.682;30.662;2022-12-18T10:40:11;100545.47;;;-4.73;85.61
53689;BME280;39583;54.682;30.662;2022-12-18T10:42:37;100554.50;;;-4.78;85.68
53689;BME280;39583;54.682;30.662;2022-12-18T10:47:34;100573.72;;;-4.77;85.49
53689;BME280;39583;54.682;30.662;2022-12-18T10:50:01;100567.44;;;-4.75;85.68
53689;BME280;39583;54.682;30.662;2022-12-18T10:52:27;100569.97;;;-4.73;85.40
53689;BME280;39583;54.682;30.662;2022-12-18T10:55:05;100567.81;;;-4.66;85.64
53689;BME280;39583;54.682;30.662;2022-12-18T11:00:20;100582.06;;;-4.70;84.72
53689;BME280;39583;54.682;30.662;2022-12-18T11:02:47;100563.69;;;-4.85;85.03
53689;BME280;39583;54.682;30.662;2022-12-18T11:05:24;100582.25;;;-4.73;85.26
53689;BME280;39583;54.682;30.662;2022-12-18T11:07:51;100577.47;;;-4.67;85.24
53689;BME280;39583;54.682;30.662;2022-12-18T11:10:32;100568.19;;;-4.72;85.25
53689;BME280;39583;54.682;30.662;2022-12-18T11:13:19;100597.47;;;-4.64;85.01
53689;BME280;39583;54.682;30.662;2022-12-18T11:15:46;100594.25;;;-4.84;84.76
53689;BME280;39583;54.682;30.662;2022-12-18T11:18:34;100597.94;;;-4.86;84.91
53689;BME280;39583;54.682;30.662;2022-12-18T11:21:08;100609.09;;;-4.83;85.30
53689;BME280;39583;54.682;30.662;2022-12-18T11:23:36;100587.41;;;-4.86;85.46
53689;BME280;39583;54.682;30.662;2022-12-18T11:26:04;100614.81;;;-4.76;84.90
53689;BME280;39583;54.682;30.662;2022-12-18T11:28:39;100625.78;;;-4.84;84.50
53689;BME280;39583;54.682;30.662;2022-12-18T11:31:27;100622.91;;;-4.93;84.55
53689;BME280;39583;54.682;30.662;2022-12-18T11:36:36;100631.31;;;-5.02;84.15
53689;BME280;39583;54.682;30.662;2022-12-18T11:42:12;100645.28;;;-5.16;83.62
53689;BME280;39583;54.682;30.662;2022-12-18T11:44:49;100642.25;;;-5.24;83.80
53689;BME280;39583;54.682;30.662;2022-12-18T11:50:00;100650.00;;;-5.37;83.35
53689;BME280;39583;54.682;30.662;2022-12-18T11:52:46;100663.06;;;-5.51;83.14
53689;BME280;39583;54.682;30.662;2022-12-18T11:55:15;100664.16;;;-5.70;83.10
53689;BME280;39583;54.682;30.662;2022-12-18T12:00:20;100672.78;;;-5.83;83.69
53689;BME280;39583;54.682;30.662;2022-12-18T12:19:47;100679.81;;;-5.84;83.80
53689;BME280;39583;54.682;30.662;2022-12-18T12:22:25;100700.03;;;-5.86;83.85
53689;BME280;39583;54.682;30.662;2022-12-18T12:38:44;100724.38;;;-6.31;83.91
53689;BME280;39583;54.682;30.662;2022-12-18T12:41:14;100702.56;;;-6.47;84.09
53689;BME280;39583;54.682;30.662;2022-12-18T12:44:07;100734.06;;;-6.49;83.87
53689;BME280;39583;54.682;30.662;2022-12-18T12:46:38;100730.06;;;-6.56;84.24
53689;BME280;39583;54.682;30.662;2022-12-18T12:49:15;100743.50;;;-6.62;84.33
53689;BME280;39583;54.682;30.662;2022-12-18T12:51:47;100753.13;;;-6.80;84.09
53689;BME280;39583;54.682;30.662;2022-12-18T12:54:22;100740.06;;;-7.15;84.19
53689;BME280;39583;54.682;30.662;2022-12-18T12:57:23;100769.91;;;-7.19;84.35
53689;BME280;39583;54.682;30.662;2022-12-18T13:00:04;100773.97;;;-7.30;84.42
53689;BME280;39583;54.682;30.662;2022-12-18T13:07:59;100789.03;;;-7.53;84.88
53689;BME280;39583;54.682;30.662;2022-12-18T13:10:32;100786.59;;;-7.57;84.94
53689;BME280;39583;54.682;30.662;2022-12-18T13:13:17;100784.22;;;-7.62;85.12
53689;BME280;39583;54.682;30.662;2022-12-18T13:18:31;100798.72;;;-7.74;85.12
53689;BME280;39583;54.682;30.662;2022-12-18T13:26:00;100805.34;;;-7.85;85.21
53689;BME280;39583;54.682;30.662;2022-12-18T13:34:17;100826.97;;;-8.00;85.08
53689;BME280;39583;54.682;30.662;2022-12-18T13:36:44;100823.91;;;-8.10;85.11
53689;BME280;39583;54.682;30.662;2022-12-18T13:41:44;100838.63;;;-8.28;85.27
53689;BME280;39583;54.682;30.662;2022-12-18T13:46:45;100847.34;;;-8.48;85.04
53689;BME280;39583;54.682;30.662;2022-12-18T13:51:41;100852.66;;;-8.70;85.01
53689;BME280;39583;54.682;30.662;2022-12-18T13:56:57;100877.09;;;-8.93;84.96
53689;BME280;39583;54.682;30.662;2022-12-18T13:59:25;100875.69;;;-9.01;85.13
53689;BME280;39583;54.682;30.662;2022-12-18T14:02:00;100885.66;;;-9.11;85.04
53689;BME280;39583;54.682;30.662;2022-12-18T14:07:13;100887.16;;;-9.27;85.10
53689;BME280;39583;54.682;30.662;2022-12-18T14:09:43;100896.13;;;-9.34;85.04
53689;BME280;39583;54.682;30.662;2022-12-18T14:12:17;100907.75;;;-9.43;85.22
53689;BME280;39583;54.682;30.662;2022-12-18T14:15:03;100911.41;;;-9.47;85.23
53689;BME280;39583;54.682;30.662;2022-12-18T14:17:31;100913.31;;;-9.52;85.17
53689;BME280;39583;54.682;30.662;2022-12-18T14:19:58;100916.16;;;-9.58;85.13
53689;BME280;39583;54.682;30.662;2022-12-18T14:22:25;100925.78;;;-9.60;85.39
53689;BME280;39583;54.682;30.662;2022-12-18T14:27:50;100932.25;;;-9.70;85.31
53689;BME280;39583;54.682;30.662;2022-12-18T14:35:40;100951.84;;;-9.84;85.19
53689;BME280;39583;54.682;30.662;2022-12-18T14:38:36;100945.19;;;-9.92;85.03
53689;BME280;39583;54.682;30.662;2022-12-18T14:41:13;100950.75;;;-10.01;84.99
53689;BME280;39583;54.682;30.662;2022-12-18T14:43:42;100956.16;;;-10.07;85.13
53689;BME280;39583;54.682;30.662;2022-12-18T14:46:45;100956.31;;;-10.12;85.09
53689;BME280;39583;54.682;30.662;2022-12-18T14:49:34;100958.19;;;-10.17;85.11
53689;BME280;39583;54.682;30.662;2022-12-18T14:52:05;100960.22;;;-10.24;85.04
53689;BME280;39583;54.682;30.662;2022-12-18T14:54:34;100960.41;;;-10.30;84.88
53689;BME280;39583;54.682;30.662;2022-12-18T14:57:20;100957.69;;;-10.52;84.69
53689;BME280;39583;54.682;30.662;2022-12-18T14:59:47;100966.91;;;-10.43;85.07
53689;BME280;39583;54.682;30.662;2022-12-18T15:02:21;100963.75;;;-10.51;85.13
53689;BME280;39583;54.682;30.662;2022-12-18T15:05:05;100966.44;;;-10.54;85.19
53689;BME280;39583;54.682;30.662;2022-12-18T15:07:46;100978.63;;;-10.56;85.55
53689;BME280;39583;54.682;30.662;2022-12-18T15:20:56;101006.25;;;-10.79;85.42
53689;BME280;39583;54.682;30.662;2022-12-18T15:26:11;101008.44;;;-10.94;85.27
53689;BME280;39583;54.682;30.662;2022-12-18T15:28:54;101015.44;;;-10.96;85.39
53689;BME280;39583;54.682;30.662;2022-12-18T15:31:32;101013.72;;;-10.96;85.71
53689;BME280;39583;54.682;30.662;2022-12-18T15:34:21;101006.00;;;-10.99;85.56
53689;BME280;39583;54.682;30.662;2022-12-18T15:36:51;101021.72;;;-11.02;85.73
53689;BME280;39583;54.682;30.662;2022-12-18T15:39:18;101011.41;;;-11.05;85.61
53689;BME280;39583;54.682;30.662;2022-12-18T15:41:46;101028.88;;;-11.10;85.62
53689;BME280;39583;54.682;30.662;2022-12-18T15:44:33;101031.53;;;-11.12;85.67
53689;BME280;39583;54.682;30.662;2022-12-18T15:46:59;101022.22;;;-11.19;85.36
53689;BME280;39583;54.682;30.662;2022-12-18T15:49:26;101027.44;;;-11.20;85.67
53689;BME280;39583;54.682;30.662;2022-12-18T15:51:56;101039.56;;;-11.19;85.78
53689;BME280;39583;54.682;30.662;2022-12-18T15:54:24;101044.75;;;-11.19;85.81
53689;BME280;39583;54.682;30.662;2022-12-18T15:57:12;101048.31;;;-11.23;85.78
53689;BME280;39583;54.682;30.662;2022-12-18T15:59:52;101053.63;;;-11.26;85.53
53689;BME280;39583;54.682;30.662;2022-12-18T16:02:20;101044.59;;;-11.44;85.39
53689;BME280;39583;54.682;30.662;2022-12-18T16:04:52;101072.91;;;-11.35;85.25
53689;BME280;39583;54.682;30.662;2022-12-18T16:07:18;101072.97;;;-11.37;85.65
53689;BME280;39583;54.682;30.662;2022-12-18T16:09:45;101076.41;;;-11.36;85.78
53689;BME280;39583;54.682;30.662;2022-12-18T16:12:16;101078.91;;;-11.33;85.90
53689;BME280;39583;54.682;30.662;2022-12-18T16:14:44;101077.56;;;-11.15;86.38
53689;BME280;39583;54.682;30.662;2022-12-18T16:17:11;101069.13;;;-10.94;86.61
53689;BME280;39583;54.682;30.662;2022-12-18T16:19:39;101072.16;;;-10.78;86.61
53689;BME280;39583;54.682;30.662;2022-12-18T16:22:05;101054.66;;;-10.73;86.73
53689;BME280;39583;54.682;30.662;2022-12-18T16:24:40;101069.31;;;-10.43;86.67
53689;BME280;39583;54.682;30.662;2022-12-18T16:27:08;101080.06;;;-10.25;86.55
53689;BME280;39583;54.682;30.662;2022-12-18T16:29:38;101064.91;;;-10.14;86.47
53689;BME280;39583;54.682;30.662;2022-12-18T16:32:05;101070.38;;;-9.95;86.28
53689;BME280;39583;54.682;30.662;2022-12-18T16:34:33;101070.69;;;-9.79;86.20
53689;BME280;39583;54.682;30.662;2022-12-18T16:37:04;101072.94;;;-9.69;86.01
53689;BME280;39583;54.682;30.662;2022-12-18T16:39:35;101076.22;;;-9.62;85.53
53689;BME280;39583;54.682;30.662;2022-12-18T16:42:10;101082.84;;;-9.54;85.35
53689;BME280;39583;54.682;30.662;2022-12-18T16:44:38;101075.72;;;-9.48;85.41
53689;BME280;39583;54.682;30.662;2022-12-18T16:47:05;101071.03;;;-9.39;85.52
53689;BME280;39583;54.682;30.662;2022-12-18T16:49:32;101080.41;;;-9.33;85.46
53689;BME280;39583;54.682;30.662;2022-12-18T16:51:58;101089.88;;;-9.31;85.37
53689;BME280;39583;54.682;30.662;2022-12-18T16:54:25;101103.69;;;-9.29;85.15
53689;BME280;39583;54.682;30.662;2022-12-18T16:56:52;101112.25;;;-9.25;85.30
53689;BME280;39583;54.682;30.662;2022-12-18T16:59:19;101115.84;;;-9.28;85.13
53689;BME280;39583;54.682;30.662;2022-12-18T17:01:46;101117.72;;;-9.31;85.30
53689;BME280;39583;54.682;30.662;2022-12-18T17:04:13;101116.00;;;-9.32;85.05
53689;BME280;39583;54.682;30.662;2022-12-18T17:06:42;101115.72;;;-9.25;85.18
53689;BME280;39583;54.682;30.662;2022-12-18T17:09:12;101122.63;;;-9.22;85.40
53689;BME280;39583;54.682;30.662;2022-12-18T17:11:43;101114.50;;;-9.14;85.36
53689;BME280;39583;54.682;30.662;2022-12-18T17:14:14;101121.09;;;-9.04;85.53
53689;BME280;39583;54.682;30.662;2022-12-18T17:16:41;101122.41;;;-8.93;85.61
53689;BME280;39583;54.682;30.662;2022-12-18T17:19:10;101120.34;;;-8.83;85.44
53689;BME280;39583;54.682;30.662;2022-12-18T17:21:37;101129.16;;;-8.64;85.90
53689;BME280;39583;54.682;30.662;2022-12-18T17:24:04;101123.53;;;-8.53;85.53
53689;BME280;39583;54.682;30.662;2022-12-18T17:26:32;101132.91;;;-8.47;85.51
53689;BME280;39583;54.682;30.662;2022-12-18T17:28:59;101135.50;;;-8.47;85.15
53689;BME280;39583;54.682;30.662;2022-12-18T17:31:28;101122.56;;;-8.50;85.23
53689;BME280;39583;54.682;30.662;2022-12-18T17:33:57;101123.88;;;-8.39;85.37
53689;BME280;39583;54.682;30.662;2022-12-18T17:36:24;101127.88;;;-8.30;85.52
53689;BME280;39583;54.682;30.662;2022-12-18T17:38:56;101116.09;;;-8.40;85.14
53689;BME280;39583;54.682;30.662;2022-12-18T17:41:26;101142.03;;;-8.36;84.90
53689;BME280;39583;54.682;30.662;2022-12-18T17:43:55;101144.75;;;-8.39;85.17
53689;BME280;39583;54.682;30.662;2022-12-18T17:46:25;101141.25;;;-8.38;85.30
53689;BME280;39583;54.682;30.662;2022-12-18T17:48:58;101134.31;;;-8.39;84.92
53689;BME280;39583;54.682;30.662;2022-12-18T17:51:26;101141.44;;;-8.42;85.15
53689;BME280;39583;54.682;30.662;2022-12-18T17:53:53;101134.56;;;-8.45;85.05
53689;BME280;39583;54.682;30.662;2022-12-18T17:56:24;101148.22;;;-8.38;85.41
53689;BME280;39583;54.682;30.662;2022-12-18T17:58:54;101148.16;;;-8.37;85.27
53689;BME280;39583;54.682;30.662;2022-12-18T18:01:23;101155.09;;;-8.36;85.27
53689;BME280;39583;54.682;30.662;2022-12-18T18:03:51;101148.00;;;-8.34;85.33
53689;BME280;39583;54.682;30.662;2022-12-18T18:06:19;101152.22;;;-8.29;85.35
53689;BME280;39583;54.682;30.662;2022-12-18T18:08:45;101156.66;;;-8.32;85.02
53689;BME280;39583;54.682;30.662;2022-12-18T18:11:14;101160.97;;;-8.30;85.22
53689;BME280;39583;54.682;30.662;2022-12-18T18:14:00;101162.63;;;-8.28;84.94
53689;BME280;39583;54.682;30.662;2022-12-18T18:16:31;101161.63;;;-8.25;85.41
53689;BME280;39583;54.682;30.662;2022-12-18T18:19:03;101141.91;;;-8.33;85.00
53689;BME280;39583;54.682;30.662;2022-12-18T18:21:32;101149.22;;;-8.20;85.22
53689;BME280;39583;54.682;30.662;2022-12-18T18:24:02;101162.22;;;-8.17;85.16
53689;BME280;39583;54.682;30.662;2022-12-18T18:26:30;101153.44;;;-8.16;85.18
53689;BME280;39583;54.682;30.662;2022-12-18T18:28:58;101154.97;;;-8.11;85.27
53689;BME280;39583;54.682;30.662;2022-12-18T18:31:26;101162.66;;;-8.06;85.18
53689;BME280;39583;54.682;30.662;2022-12-18T18:33:53;101154.81;;;-8.06;85.14
53689;BME280;39583;54.682;30.662;2022-12-18T18:36:21;101170.50;;;-8.08;85.14
